sensor_id;sensor_type;location;lat;lon;timestamp;pressure;altitude;pressure_sealevel;temperature
22828;BMP180;11580;52.562;13.418;2022-09-23T00:01:09;101279.00;;;11.50
22828;BMP180;11580;52.562;13.418;2022-09-23T00:03:39;101272.00;;;11.50
22828;BMP180;11580;52.562;13.418;2022-09-23T00:06:09;101277.00;;;11.50
22828;BMP180;11580;52.562;13.418;2022-09-23T00:08:38;101273.00;;;11.40
22828;BMP180;11580;52.562;13.418;2022-09-23T00:11:08;101265.00;;;11.40
22828;BMP180;11580;52.562;13.418;2022-09-23T00:13:39;101269.00;;;11.40
22828;BMP180;11580;52.562;13.418;2022-09-23T00:16:10;101268.00;;;11.40
22828;BMP180;11580;52.562;13.418;2022-09-23T00:18:38;101272.00;;;11.40
22828;BMP180;11580;52.562;13.418;2022-09-23T00:21:10;101262.00;;;11.40
22828;BMP180;11580;52.562;13.418;2022-09-23T00:23:39;101268.00;;;11.40
22828;BMP180;11580;52.562;13.418;2022-09-23T00:26:10;101237.00;;;11.40
22828;BMP180;11580;52.562;13.418;2022-09-23T00:28:39;101252.00;;;11.30
22828;BMP180;11580;52.562;13.418;2022-09-23T00:31:09;101255.00;;;11.30
22828;BMP180;11580;52.562;13.418;2022-09-23T00:33:37;101247.00;;;11.30
22828;BMP180;11580;52.562;13.418;2022-09-23T00:36:09;101250.00;;;11.30
22828;BMP180;11580;52.562;13.418;2022-09-23T00:38:37;101246.00;;;11.30
22828;BMP180;11580;52.562;13.418;2022-09-23T00:41:05;101244.00;;;11.30
22828;BMP180;11580;52.562;13.418;2022-09-23T00:43:40;101247.00;;;11.40
22828;BMP180;11580;52.562;13.418;2022-09-23T00:46:11;101238.00;;;11.30
22828;BMP180;11580;52.562;13.418;2022-09-23T00:48:42;101246.00;;;11.30
22828;BMP180;11580;52.562;13.418;2022-09-23T00:51:14;101242.00;;;11.40
22828;BMP180;11580;52.562;13.418;2022-09-23T00:53:47;101238.00;;;11.40
22828;BMP180;11580;52.562;13.418;2022-09-23T00:56:15;101235.00;;;11.40
22828;BMP180;11580;52.562;13.418;2022-09-23T00:58:49;101221.00;;;11.30
22828;BMP180;11580;52.562;13.418;2022-09-23T01:01:18;101232.00;;;11.30
22828;BMP180;11580;52.562;13.418;2022-09-23T01:03:46;101235.00;;;11.40
22828;BMP180;11580;52.562;13.418;2022-09-23T01:06:14;101222.00;;;11.40
22828;BMP180;11580;52.562;13.418;2022-09-23T01:08:45;101224.00;;;11.40
22828;BMP180;11580;52.562;13.418;2022-09-23T01:11:33;101222.00;;;11.40
22828;BMP180;11580;52.562;13.418;2022-09-23T01:14:19;101211.00;;;11.30
22828;BMP180;11580;52.562;13.418;2022-09-23T01:16:57;101216.00;;;11.30
22828;BMP180;11580;52.562;13.418;2022-09-23T01:20:02;101179.00;;;11.30
22828;BMP180;11580;52.562;13.418;2022-09-23T01:22:38;101209.00;;;11.30
22828;BMP180;11580;52.562;13.418;2022-09-23T01:25:27;101197.00;;;11.30
22828;BMP180;11580;52.562;13.418;2022-09-23T01:28:25;101205.00;;;11.30
22828;BMP180;11580;52.562;13.418;2022-09-23T01:31:00;101205.00;;;11.30
22828;BMP180;11580;52.562;13.418;2022-09-23T01:33:38;101213.00;;;11.30
22828;BMP180;11580;52.562;13.418;2022-09-23T01:36:20;101200.00;;;11.30
22828;BMP180;11580;52.562;13.418;2022-09-23T01:38:57;101203.00;;;11.30
22828;BMP180;11580;52.562;13.418;2022-09-23T01:41:44;101212.00;;;11.20
22828;BMP180;11580;52.562;13.418;2022-09-23T01:44:21;101203.00;;;11.20
22828;BMP180;11580;52.562;13.418;2022-09-23T01:46:55;101203.00;;;11.10
22828;BMP180;11580;52.562;13.418;2022-09-23T01:49:30;101183.00;;;11.20
22828;BMP180;11580;52.562;13.418;2022-09-23T01:52:08;101198.00;;;11.20
22828;BMP180;11580;52.562;13.418;2022-09-23T01:54:47;101203.00;;;11.20
22828;BMP180;11580;52.562;13.418;2022-09-23T01:57:24;101199.00;;;11.20
22828;BMP180;11580;52.562;13.418;2022-09-23T02:00:02;101198.00;;;11.20
22828;BMP180;11580;52.562;13.418;2022-09-23T02:02:42;101199.00;;;11.20
22828;BMP180;11580;52.562;13.418;2022-09-23T02:05:19;101199.00;;;11.20
22828;BMP180;11580;52.562;13.418;2022-09-23T02:07:53;101196.00;;;11.10
22828;BMP180;11580;52.562;13.418;2022-09-23T02:10:30;101190.00;;;11.10
22828;BMP180;11580;52.562;13.418;2022-09-23T02:13:06;101194.00;;;11.00
22828;BMP180;11580;52.562;13.418;2022-09-23T02:15:40;101149.00;;;11.10
22828;BMP180;11580;52.562;13.418;2022-09-23T02:18:16;101188.00;;;11.10
22828;BMP180;11580;52.562;13.418;2022-09-23T02:20:45;101187.00;;;11.10
22828;BMP180;11580;52.562;13.418;2022-09-23T02:23:18;101187.00;;;11.10
22828;BMP180;11580;52.562;13.418;2022-09-23T02:25:54;101172.00;;;11.00
22828;BMP180;11580;52.562;13.418;2022-09-23T02:28:31;101172.00;;;11.00
22828;BMP180;11580;52.562;13.418;2022-09-23T02:31:08;101165.00;;;11.00
22828;BMP180;11580;52.562;13.418;2022-09-23T02:33:45;101157.00;;;11.00
22828;BMP180;11580;52.562;13.418;2022-09-23T02:36:25;101169.00;;;10.90
22828;BMP180;11580;52.562;13.418;2022-09-23T02:38:58;101158.00;;;10.90
22828;BMP180;11580;52.562;13.418;2022-09-23T02:41:32;101153.00;;;10.90
22828;BMP180;11580;52.562;13.418;2022-09-23T02:44:06;101155.00;;;10.90
22828;BMP180;11580;52.562;13.418;2022-09-23T02:46:35;101161.00;;;10.80
22828;BMP180;11580;52.562;13.418;2022-09-23T02:49:11;101153.00;;;10.80
22828;BMP180;11580;52.562;13.418;2022-09-23T02:51:40;101146.00;;;10.80
22828;BMP180;11580;52.562;13.418;2022-09-23T02:54:12;101139.00;;;10.80
22828;BMP180;11580;52.562;13.418;2022-09-23T02:56:41;101147.00;;;10.70
22828;BMP180;11580;52.562;13.418;2022-09-23T02:59:09;101149.00;;;10.70
22828;BMP180;11580;52.562;13.418;2022-09-23T03:01:47;101136.00;;;10.70
22828;BMP180;11580;52.562;13.418;2022-09-23T03:04:30;101137.00;;;10.70
22828;BMP180;11580;52.562;13.418;2022-09-23T03:07:03;101138.00;;;10.60
22828;BMP180;11580;52.562;13.418;2022-09-23T03:09:38;101139.00;;;10.60
22828;BMP180;11580;52.562;13.418;2022-09-23T03:12:14;101123.00;;;10.60
22828;BMP180;11580;52.562;13.418;2022-09-23T03:14:52;101133.00;;;10.60
22828;BMP180;11580;52.562;13.418;2022-09-23T03:17:29;101132.00;;;10.50
22828;BMP180;11580;52.562;13.418;2022-09-23T03:20:05;101124.00;;;10.50
22828;BMP180;11580;52.562;13.418;2022-09-23T03:22:39;101121.00;;;10.50
22828;BMP180;11580;52.562;13.418;2022-09-23T03:25:13;101124.00;;;10.50
22828;BMP180;11580;52.562;13.418;2022-09-23T03:27:43;101121.00;;;10.50
22828;BMP180;11580;52.562;13.418;2022-09-23T03:30:12;101117.00;;;10.50
22828;BMP180;11580;52.562;13.418;2022-09-23T03:32:44;101120.00;;;10.50
22828;BMP180;11580;52.562;13.418;2022-09-23T03:35:13;101110.00;;;10.50
22828;BMP180;11580;52.562;13.418;2022-09-23T03:37:47;101114.00;;;10.40
22828;BMP180;11580;52.562;13.418;2022-09-23T03:40:23;101112.00;;;10.40
22828;BMP180;11580;52.562;13.418;2022-09-23T03:42:52;101113.00;;;10.40
22828;BMP180;11580;52.562;13.418;2022-09-23T03:45:25;101101.00;;;10.40
22828;BMP180;11580;52.562;13.418;2022-09-23T03:47:52;101102.00;;;10.40
22828;BMP180;11580;52.562;13.418;2022-09-23T03:50:21;101105.00;;;10.40
22828;BMP180;11580;52.562;13.418;2022-09-23T03:52:49;101105.00;;;10.40
22828;BMP180;11580;52.562;13.418;2022-09-23T03:55:17;101099.00;;;10.40
22828;BMP180;11580;52.562;13.418;2022-09-23T03:57:45;101102.00;;;10.40
22828;BMP180;11580;52.562;13.418;2022-09-23T04:00:14;101105.00;;;10.40
22828;BMP180;11580;52.562;13.418;2022-09-23T04:02:42;101099.00;;;10.30
22828;BMP180;11580;52.562;13.418;2022-09-23T04:05:11;101094.00;;;10.30
22828;BMP180;11580;52.562;13.418;2022-09-23T04:07:40;101096.00;;;10.30
22828;BMP180;11580;52.562;13.418;2022-09-23T04:10:08;101094.00;;;10.30
22828;BMP180;11580;52.562;13.418;2022-09-23T04:12:36;101091.00;;;10.30
22828;BMP180;11580;52.562;13.418;2022-09-23T04:15:05;101077.00;;;10.30
22828;BMP180;11580;52.562;13.418;2022-09-23T04:17:32;101083.00;;;10.30
22828;BMP180;11580;52.562;13.418;2022-09-23T04:19:59;101075.00;;;10.30
22828;BMP180;11580;52.562;13.418;2022-09-23T04:22:27;101078.00;;;10.30
22828;BMP180;11580;52.562;13.418;2022-09-23T04:24:55;101056.00;;;10.20
22828;BMP180;11580;52.562;13.418;2022-09-23T04:27:22;101073.00;;;10.20
22828;BMP180;11580;52.562;13.418;2022-09-23T04:29:50;101078.00;;;10.20
22828;BMP180;11580;52.562;13.418;2022-09-23T04:32:17;101074.00;;;10.20
22828;BMP180;11580;52.562;13.418;2022-09-23T04:34:44;101075.00;;;10.20
22828;BMP180;11580;52.562;13.418;2022-09-23T04:37:11;101076.00;;;10.20
22828;BMP180;11580;52.562;13.418;2022-09-23T04:39:39;101070.00;;;10.20
22828;BMP180;11580;52.562;13.418;2022-09-23T04:42:07;101073.00;;;10.20
22828;BMP180;11580;52.562;13.418;2022-09-23T04:44:34;101067.00;;;10.10
22828;BMP180;11580;52.562;13.418;2022-09-23T04:47:04;101068.00;;;10.10
22828;BMP180;11580;52.562;13.418;2022-09-23T04:49:31;101065.00;;;10.10
22828;BMP180;11580;52.562;13.418;2022-09-23T04:51:58;101065.00;;;10.10
22828;BMP180;11580;52.562;13.418;2022-09-23T04:54:26;101062.00;;;10.10
22828;BMP180;11580;52.562;13.418;2022-09-23T04:56:54;101068.00;;;10.10
22828;BMP180;11580;52.562;13.418;2022-09-23T04:59:22;101064.00;;;10.10
22828;BMP180;11580;52.562;13.418;2022-09-23T05:01:50;101064.00;;;10.10
22828;BMP180;11580;52.562;13.418;2022-09-23T05:04:20;101068.00;;;10.10
22828;BMP180;11580;52.562;13.418;2022-09-23T05:06:47;101065.00;;;10.10
22828;BMP180;11580;52.562;13.418;2022-09-23T05:09:16;101069.00;;;10.10
22828;BMP180;11580;52.562;13.418;2022-09-23T05:11:44;101074.00;;;10.10
22828;BMP180;11580;52.562;13.418;2022-09-23T05:14:12;101069.00;;;10.20
22828;BMP180;11580;52.562;13.418;2022-09-23T05:16:41;101071.00;;;10.20
22828;BMP180;11580;52.562;13.418;2022-09-23T05:19:08;101067.00;;;10.20
22828;BMP180;11580;52.562;13.418;2022-09-23T05:21:36;101067.00;;;10.20
22828;BMP180;11580;52.562;13.418;2022-09-23T05:24:04;101064.00;;;10.30
22828;BMP180;11580;52.562;13.418;2022-09-23T05:26:32;101067.00;;;10.30
22828;BMP180;11580;52.562;13.418;2022-09-23T05:28:59;101060.00;;;10.30
22828;BMP180;11580;52.562;13.418;2022-09-23T05:31:29;101053.00;;;10.40
22828;BMP180;11580;52.562;13.418;2022-09-23T05:33:59;101068.00;;;10.40
22828;BMP180;11580;52.562;13.418;2022-09-23T05:36:29;101070.00;;;10.50
22828;BMP180;11580;52.562;13.418;2022-09-23T05:38:57;101072.00;;;10.50
22828;BMP180;11580;52.562;13.418;2022-09-23T05:41:25;101060.00;;;10.60
22828;BMP180;11580;52.562;13.418;2022-09-23T05:43:54;101068.00;;;10.70
22828;BMP180;11580;52.562;13.418;2022-09-23T05:46:24;101065.00;;;10.70
22828;BMP180;11580;52.562;13.418;2022-09-23T05:48:54;101074.00;;;10.80
22828;BMP180;11580;52.562;13.418;2022-09-23T05:51:24;101035.00;;;10.90
22828;BMP180;11580;52.562;13.418;2022-09-23T05:53:53;101063.00;;;10.90
22828;BMP180;11580;52.562;13.418;2022-09-23T05:56:25;101062.00;;;11.00
22828;BMP180;11580;52.562;13.418;2022-09-23T05:58:55;101055.00;;;11.00
22828;BMP180;11580;52.562;13.418;2022-09-23T06:01:25;101059.00;;;11.10
22828;BMP180;11580;52.562;13.418;2022-09-23T06:03:55;101069.00;;;11.20
22828;BMP180;11580;52.562;13.418;2022-09-23T06:06:27;101064.00;;;11.30
22828;BMP180;11580;52.562;13.418;2022-09-23T06:08:56;101064.00;;;11.40
22828;BMP180;11580;52.562;13.418;2022-09-23T06:11:23;101068.00;;;11.50
22828;BMP180;11580;52.562;13.418;2022-09-23T06:13:55;101065.00;;;11.50
22828;BMP180;11580;52.562;13.418;2022-09-23T06:16:27;101076.00;;;11.60
22828;BMP180;11580;52.562;13.418;2022-09-23T06:18:54;101080.00;;;11.70
22828;BMP180;11580;52.562;13.418;2022-09-23T06:21:23;101079.00;;;11.80
22828;BMP180;11580;52.562;13.418;2022-09-23T06:23:50;101071.00;;;11.90
22828;BMP180;11580;52.562;13.418;2022-09-23T06:26:17;101071.00;;;12.00
22828;BMP180;11580;52.562;13.418;2022-09-23T06:28:44;101072.00;;;12.10
22828;BMP180;11580;52.562;13.418;2022-09-23T06:31:14;101075.00;;;12.20
22828;BMP180;11580;52.562;13.418;2022-09-23T06:33:43;101081.00;;;12.30
22828;BMP180;11580;52.562;13.418;2022-09-23T06:36:12;101084.00;;;12.40
22828;BMP180;11580;52.562;13.418;2022-09-23T06:38:42;101080.00;;;12.50
22828;BMP180;11580;52.562;13.418;2022-09-23T06:41:11;101062.00;;;12.60
22828;BMP180;11580;52.562;13.418;2022-09-23T06:43:38;101086.00;;;12.70
22828;BMP180;11580;52.562;13.418;2022-09-23T06:46:07;101091.00;;;12.80
22828;BMP180;11580;52.562;13.418;2022-09-23T06:48:34;101053.00;;;12.90
22828;BMP180;11580;52.562;13.418;2022-09-23T06:51:04;101075.00;;;13.00
22828;BMP180;11580;52.562;13.418;2022-09-23T06:53:33;101090.00;;;13.20
22828;BMP180;11580;52.562;13.418;2022-09-23T06:56:06;101093.00;;;13.30
22828;BMP180;11580;52.562;13.418;2022-09-23T06:58:34;101095.00;;;13.40
22828;BMP180;11580;52.562;13.418;2022-09-23T07:01:04;101102.00;;;13.60
22828;BMP180;11580;52.562;13.418;2022-09-23T07:03:32;101096.00;;;13.70
22828;BMP180;11580;52.562;13.418;2022-09-23T07:06:01;101105.00;;;13.80
22828;BMP180;11580;52.562;13.418;2022-09-23T07:08:31;101091.00;;;13.90
22828;BMP180;11580;52.562;13.418;2022-09-23T07:11:03;101106.00;;;14.00
22828;BMP180;11580;52.562;13.418;2022-09-23T07:13:32;101099.00;;;14.20
22828;BMP180;11580;52.562;13.418;2022-09-23T07:16:01;101099.00;;;14.40
22828;BMP180;11580;52.562;13.418;2022-09-23T07:18:32;101112.00;;;14.50
22828;BMP180;11580;52.562;13.418;2022-09-23T07:21:06;101088.00;;;14.60
22828;BMP180;11580;52.562;13.418;2022-09-23T07:23:34;101085.00;;;14.80
22828;BMP180;11580;52.562;13.418;2022-09-23T07:26:04;101117.00;;;15.00
22828;BMP180;11580;52.562;13.418;2022-09-23T07:28:33;101118.00;;;15.10
22828;BMP180;11580;52.562;13.418;2022-09-23T07:33:33;101109.00;;;15.40
22828;BMP180;11580;52.562;13.418;2022-09-23T07:36:05;101109.00;;;15.60
22828;BMP180;11580;52.562;13.418;2022-09-23T07:38:32;101114.00;;;15.70
22828;BMP180;11580;52.562;13.418;2022-09-23T07:41:03;101104.00;;;15.80
22828;BMP180;11580;52.562;13.418;2022-09-23T07:43:31;101111.00;;;16.00
22828;BMP180;11580;52.562;13.418;2022-09-23T07:46:00;101108.00;;;16.10
22828;BMP180;11580;52.562;13.418;2022-09-23T07:48:28;101112.00;;;16.20
22828;BMP180;11580;52.562;13.418;2022-09-23T07:50:56;101109.00;;;16.40
22828;BMP180;11580;52.562;13.418;2022-09-23T07:53:25;101104.00;;;16.50
22828;BMP180;11580;52.562;13.418;2022-09-23T07:55:53;101117.00;;;16.60
22828;BMP180;11580;52.562;13.418;2022-09-23T07:58:23;101114.00;;;16.80
22828;BMP180;11580;52.562;13.418;2022-09-23T08:00:50;101107.00;;;16.90
22828;BMP180;11580;52.562;13.418;2022-09-23T08:03:19;101115.00;;;17.00
22828;BMP180;11580;52.562;13.418;2022-09-23T08:05:46;101104.00;;;17.10
22828;BMP180;11580;52.562;13.418;2022-09-23T08:08:14;101112.00;;;17.20
22828;BMP180;11580;52.562;13.418;2022-09-23T08:10:42;101115.00;;;17.40
22828;BMP180;11580;52.562;13.418;2022-09-23T08:13:09;101112.00;;;17.50
22828;BMP180;11580;52.562;13.418;2022-09-23T08:15:37;101111.00;;;17.60
22828;BMP180;11580;52.562;13.418;2022-09-23T08:18:05;101113.00;;;17.70
22828;BMP180;11580;52.562;13.418;2022-09-23T08:20:32;101116.00;;;17.80
22828;BMP180;11580;52.562;13.418;2022-09-23T08:23:15;101121.00;;;18.00
22828;BMP180;11580;52.562;13.418;2022-09-23T08:25:43;101121.00;;;18.00
22828;BMP180;11580;52.562;13.418;2022-09-23T08:28:12;101118.00;;;18.10
22828;BMP180;11580;52.562;13.418;2022-09-23T08:30:46;101108.00;;;18.20
22828;BMP180;11580;52.562;13.418;2022-09-23T08:33:14;101122.00;;;18.30
22828;BMP180;11580;52.562;13.418;2022-09-23T08:35:41;101121.00;;;18.40
22828;BMP180;11580;52.562;13.418;2022-09-23T08:38:08;101116.00;;;18.50
22828;BMP180;11580;52.562;13.418;2022-09-23T08:40:38;101110.00;;;18.50
22828;BMP180;11580;52.562;13.418;2022-09-23T08:43:07;101118.00;;;18.60
22828;BMP180;11580;52.562;13.418;2022-09-23T08:45:40;101116.00;;;18.60
22828;BMP180;11580;52.562;13.418;2022-09-23T08:48:13;101116.00;;;18.70
22828;BMP180;11580;52.562;13.418;2022-09-23T08:50:43;101108.00;;;18.70
22828;BMP180;11580;52.562;13.418;2022-09-23T08:53:21;101109.00;;;18.80
22828;BMP180;11580;52.562;13.418;2022-09-23T08:55:52;101095.00;;;18.80
22828;BMP180;11580;52.562;13.418;2022-09-23T08:58:52;101096.00;;;18.90
22828;BMP180;11580;52.562;13.418;2022-09-23T09:01:27;101100.00;;;18.90
22828;BMP180;11580;52.562;13.418;2022-09-23T09:03:59;101092.00;;;19.00
22828;BMP180;11580;52.562;13.418;2022-09-23T09:06:33;101091.00;;;19.10
22828;BMP180;11580;52.562;13.418;2022-09-23T09:09:19;101087.00;;;19.10
22828;BMP180;11580;52.562;13.418;2022-09-23T09:11:53;101101.00;;;19.10
22828;BMP180;11580;52.562;13.418;2022-09-23T09:14:34;101092.00;;;19.10
22828;BMP180;11580;52.562;13.418;2022-09-23T09:17:05;101080.00;;;19.20
22828;BMP180;11580;52.562;13.418;2022-09-23T09:20:02;101102.00;;;19.30
22828;BMP180;11580;52.562;13.418;2022-09-23T09:22:52;101101.00;;;19.30
22828;BMP180;11580;52.562;13.418;2022-09-23T09:25:41;101104.00;;;19.40
22828;BMP180;11580;52.562;13.418;2022-09-23T09:28:16;101095.00;;;19.40
22828;BMP180;11580;52.562;13.418;2022-09-23T09:30:49;101067.00;;;19.50
22828;BMP180;11580;52.562;13.418;2022-09-23T09:33:24;101100.00;;;19.60
22828;BMP180;11580;52.562;13.418;2022-09-23T09:36:13;101089.00;;;19.70
22828;BMP180;11580;52.562;13.418;2022-09-23T09:38:43;101091.00;;;19.70
22828;BMP180;11580;52.562;13.418;2022-09-23T09:41:13;101088.00;;;19.80
22828;BMP180;11580;52.562;13.418;2022-09-23T09:43:45;101085.00;;;19.90
22828;BMP180;11580;52.562;13.418;2022-09-23T09:46:41;101083.00;;;19.90
22828;BMP180;11580;52.562;13.418;2022-09-23T09:49:22;101073.00;;;20.00
22828;BMP180;11580;52.562;13.418;2022-09-23T09:52:12;101067.00;;;20.00
22828;BMP180;11580;52.562;13.418;2022-09-23T09:54:40;101067.00;;;20.10
22828;BMP180;11580;52.562;13.418;2022-09-23T09:57:18;101062.00;;;20.20
22828;BMP180;11580;52.562;13.418;2022-09-23T09:59:51;101060.00;;;20.30
22828;BMP180;11580;52.562;13.418;2022-09-23T10:02:27;101057.00;;;20.30
22828;BMP180;11580;52.562;13.418;2022-09-23T10:05:01;101059.00;;;20.40
22828;BMP180;11580;52.562;13.418;2022-09-23T10:07:32;101058.00;;;20.50
22828;BMP180;11580;52.562;13.418;2022-09-23T10:10:17;101053.00;;;20.60
22828;BMP180;11580;52.562;13.418;2022-09-23T10:12:47;101051.00;;;20.70
22828;BMP180;11580;52.562;13.418;2022-09-23T10:15:29;101052.00;;;20.90
22828;BMP180;11580;52.562;13.418;2022-09-23T10:17:59;101045.00;;;21.00
22828;BMP180;11580;52.562;13.418;2022-09-23T10:20:33;101048.00;;;21.10
22828;BMP180;11580;52.562;13.418;2022-09-23T10:23:11;101049.00;;;21.30
22828;BMP180;11580;52.562;13.418;2022-09-23T10:25:42;101055.00;;;21.40
22828;BMP180;11580;52.562;13.418;2022-09-23T10:28:32;101048.00;;;21.50
22828;BMP180;11580;52.562;13.418;2022-09-23T10:31:07;101051.00;;;21.60
22828;BMP180;11580;52.562;13.418;2022-09-23T10:33:41;101047.00;;;21.70
22828;BMP180;11580;52.562;13.418;2022-09-23T10:36:09;101053.00;;;21.80
22828;BMP180;11580;52.562;13.418;2022-09-23T10:38:38;101045.00;;;21.80
22828;BMP180;11580;52.562;13.418;2022-09-23T10:41:17;101044.00;;;21.90
22828;BMP180;11580;52.562;13.418;2022-09-23T10:44:22;101043.00;;;22.00
22828;BMP180;11580;52.562;13.418;2022-09-23T10:47:23;101044.00;;;22.00
22828;BMP180;11580;52.562;13.418;2022-09-23T10:50:14;101039.00;;;22.10
22828;BMP180;11580;52.562;13.418;2022-09-23T10:52:56;101052.00;;;22.20
22828;BMP180;11580;52.562;13.418;2022-09-23T10:55:50;101040.00;;;22.30
22828;BMP180;11580;52.562;13.418;2022-09-23T10:58:47;101029.00;;;22.40
22828;BMP180;11580;52.562;13.418;2022-09-23T11:01:33;101044.00;;;22.50
22828;BMP180;11580;52.562;13.418;2022-09-23T11:07:28;101042.00;;;22.70
22828;BMP180;11580;52.562;13.418;2022-09-23T11:10:39;101036.00;;;22.80
22828;BMP180;11580;52.562;13.418;2022-09-23T11:13:26;101029.00;;;22.90
22828;BMP180;11580;52.562;13.418;2022-09-23T11:16:10;101030.00;;;23.00
22828;BMP180;11580;52.562;13.418;2022-09-23T11:19:08;101030.00;;;23.10
22828;BMP180;11580;52.562;13.418;2022-09-23T11:21:51;101023.00;;;23.20
22828;BMP180;11580;52.562;13.418;2022-09-23T11:24:42;101008.00;;;23.30
22828;BMP180;11580;52.562;13.418;2022-09-23T11:27:37;101020.00;;;23.30
22828;BMP180;11580;52.562;13.418;2022-09-23T11:30:12;101008.00;;;23.40
22828;BMP180;11580;52.562;13.418;2022-09-23T11:35:50;100998.00;;;23.40
22828;BMP180;11580;52.562;13.418;2022-09-23T11:38:24;101005.00;;;23.50
22828;BMP180;11580;52.562;13.418;2022-09-23T11:40:59;101002.00;;;23.50
22828;BMP180;11580;52.562;13.418;2022-09-23T11:43:35;100987.00;;;23.50
22828;BMP180;11580;52.562;13.418;2022-09-23T11:46:26;100989.00;;;23.50
22828;BMP180;11580;52.562;13.418;2022-09-23T11:49:02;100986.00;;;23.50
22828;BMP180;11580;52.562;13.418;2022-09-23T11:51:38;100983.00;;;23.50
22828;BMP180;11580;52.562;13.418;2022-09-23T11:54:15;100980.00;;;23.50
22828;BMP180;11580;52.562;13.418;2022-09-23T11:56:50;100978.00;;;23.40
22828;BMP180;11580;52.562;13.418;2022-09-23T11:59:34;100980.00;;;23.30
22828;BMP180;11580;52.562;13.418;2022-09-23T12:02:16;100978.00;;;23.30
22828;BMP180;11580;52.562;13.418;2022-09-23T12:04:54;100970.00;;;23.20
22828;BMP180;11580;52.562;13.418;2022-09-23T12:07:30;100967.00;;;23.10
22828;BMP180;11580;52.562;13.418;2022-09-23T12:10:04;100968.00;;;23.10
22828;BMP180;11580;52.562;13.418;2022-09-23T12:12:41;100960.00;;;23.00
22828;BMP180;11580;52.562;13.418;2022-09-23T12:15:32;100959.00;;;23.00
22828;BMP180;11580;52.562;13.418;2022-09-23T12:18:28;100950.00;;;22.90
22828;BMP180;11580;52.562;13.418;2022-09-23T12:21:30;100944.00;;;22.90
22828;BMP180;11580;52.562;13.418;2022-09-23T12:27:27;100945.00;;;22.90
22828;BMP180;11580;52.562;13.418;2022-09-23T12:30:00;100936.00;;;22.80
22828;BMP180;11580;52.562;13.418;2022-09-23T12:32:30;100943.00;;;22.80
22828;BMP180;11580;52.562;13.418;2022-09-23T12:34:59;100936.00;;;22.80
22828;BMP180;11580;52.562;13.418;2022-09-23T12:37:32;100938.00;;;22.80
22828;BMP180;11580;52.562;13.418;2022-09-23T12:40:07;100936.00;;;22.80
22828;BMP180;11580;52.562;13.418;2022-09-23T12:42:42;100935.00;;;22.80
22828;BMP180;11580;52.562;13.418;2022-09-23T12:45:35;100928.00;;;22.80
22828;BMP180;11580;52.562;13.418;2022-09-23T12:48:42;100932.00;;;22.80
22828;BMP180;11580;52.562;13.418;2022-09-23T12:51:19;100927.00;;;22.70
22828;BMP180;11580;52.562;13.418;2022-09-23T12:54:20;100928.00;;;22.70
22828;BMP180;11580;52.562;13.418;2022-09-23T12:57:03;100928.00;;;22.70
22828;BMP180;11580;52.562;13.418;2022-09-23T12:59:58;100921.00;;;22.60
22828;BMP180;11580;52.562;13.418;2022-09-23T13:02:41;100917.00;;;22.50
22828;BMP180;11580;52.562;13.418;2022-09-23T13:05:18;100910.00;;;22.50
22828;BMP180;11580;52.562;13.418;2022-09-23T13:08:08;100909.00;;;22.40
22828;BMP180;11580;52.562;13.418;2022-09-23T13:10:43;100879.00;;;22.40
22828;BMP180;11580;52.562;13.418;2022-09-23T13:13:21;100907.00;;;22.40
22828;BMP180;11580;52.562;13.418;2022-09-23T13:15:51;100894.00;;;22.30
22828;BMP180;11580;52.562;13.418;2022-09-23T13:18:56;100892.00;;;22.30
22828;BMP180;11580;52.562;13.418;2022-09-23T13:22:02;100883.00;;;22.20
22828;BMP180;11580;52.562;13.418;2022-09-23T13:24:51;100891.00;;;22.20
22828;BMP180;11580;52.562;13.418;2022-09-23T13:27:32;100880.00;;;22.10
22828;BMP180;11580;52.562;13.418;2022-09-23T13:30:04;100876.00;;;22.10
22828;BMP180;11580;52.562;13.418;2022-09-23T13:32:37;100868.00;;;22.10
22828;BMP180;11580;52.562;13.418;2022-09-23T13:35:16;100870.00;;;22.10
22828;BMP180;11580;52.562;13.418;2022-09-23T13:37:49;100874.00;;;22.10
22828;BMP180;11580;52.562;13.418;2022-09-23T13:40:20;100850.00;;;22.00
22828;BMP180;11580;52.562;13.418;2022-09-23T13:42:55;100839.00;;;22.00
22828;BMP180;11580;52.562;13.418;2022-09-23T13:45:26;100864.00;;;22.00
22828;BMP180;11580;52.562;13.418;2022-09-23T13:47:59;100866.00;;;22.00
22828;BMP180;11580;52.562;13.418;2022-09-23T13:50:28;100855.00;;;22.00
22828;BMP180;11580;52.562;13.418;2022-09-23T13:53:01;100833.00;;;21.90
22828;BMP180;11580;52.562;13.418;2022-09-23T13:55:34;100843.00;;;21.90
22828;BMP180;11580;52.562;13.418;2022-09-23T13:58:13;100846.00;;;21.90
22828;BMP180;11580;52.562;13.418;2022-09-23T14:00:42;100837.00;;;21.90
22828;BMP180;11580;52.562;13.418;2022-09-23T14:03:20;100835.00;;;21.90
22828;BMP180;11580;52.562;13.418;2022-09-23T14:05:50;100821.00;;;21.90
22828;BMP180;11580;52.562;13.418;2022-09-23T14:08:20;100822.00;;;21.90
22828;BMP180;11580;52.562;13.418;2022-09-23T14:10:48;100822.00;;;21.90
22828;BMP180;11580;52.562;13.418;2022-09-23T14:13:20;100829.00;;;21.80
22828;BMP180;11580;52.562;13.418;2022-09-23T14:15:51;100823.00;;;21.80
22828;BMP180;11580;52.562;13.418;2022-09-23T14:18:29;100821.00;;;21.80
22828;BMP180;11580;52.562;13.418;2022-09-23T14:20:58;100818.00;;;21.80
22828;BMP180;11580;52.562;13.418;2022-09-23T14:23:26;100815.00;;;21.80
22828;BMP180;11580;52.562;13.418;2022-09-23T14:25:55;100816.00;;;21.80
22828;BMP180;11580;52.562;13.418;2022-09-23T14:28:26;100809.00;;;21.70
22828;BMP180;11580;52.562;13.418;2022-09-23T14:30:55;100808.00;;;21.70
22828;BMP180;11580;52.562;13.418;2022-09-23T14:33:27;100812.00;;;21.70
22828;BMP180;11580;52.562;13.418;2022-09-23T14:36:04;100805.00;;;21.70